AEE624 LGAV-EHAM
Flight info
| Callsign | AEE624 |
|---|---|
| Flight time | N/A |
| Altitude | 34000 |
| Route | KOR UL53 ELVAS DCT TUMBO DCT TAZ DCT KUSIB DCT PODET DCT RENKA DCT GASKA DCT MAPOX DCT HMM DCT NORKU |
| Aircraft | A321/M-SDE3FGHIRWY/LB1 |
Departure
| Time | 2026-05-04 10:21 |
|---|---|
| Airport | Athens Eleftherios Venizelos International Airport (LGAV) |
Arrival
| Time | N/A |
|---|---|
| Airport | Amsterdam Airport Schiphol (EHAM) |
| Time | Latitude | Longitude | Altitude | Speed | Heading |
|---|---|---|---|---|---|
| 2026-05-04 10:04 | 37.93506 | 23.94756 | 323 ft | 0 kts | 307° |
| 2026-05-04 10:10 | 37.93506 | 23.94757 | 322 ft | 1 kts | 307° |
| 2026-05-04 10:11 | 37.93498 | 23.94770 | 322 ft | 3 kts | 307° |
| 2026-05-04 10:11 | 37.93487 | 23.94789 | 322 ft | 3 kts | 307° |
| 2026-05-04 10:11 | 37.93475 | 23.94809 | 322 ft | 3 kts | 307° |
| 2026-05-04 10:11 | 37.93462 | 23.94830 | 322 ft | 3 kts | 307° |
| 2026-05-04 10:12 | 37.93450 | 23.94851 | 322 ft | 3 kts | 307° |
| 2026-05-04 10:12 | 37.93449 | 23.94852 | 322 ft | 0 kts | 307° |
| 2026-05-04 10:14 | 37.93450 | 23.94852 | 322 ft | 0 kts | 307° |
| 2026-05-04 10:16 | 37.93272 | 23.94649 | 322 ft | 8 kts | 216° |
| 2026-05-04 10:16 | 37.93224 | 23.94614 | 322 ft | 9 kts | 200° |
| 2026-05-04 10:16 | 37.93161 | 23.94596 | 322 ft | 9 kts | 182° |
| 2026-05-04 10:16 | 37.93110 | 23.94613 | 322 ft | 7 kts | 147° |
| 2026-05-04 10:17 | 37.93064 | 23.94652 | 322 ft | 9 kts | 152° |
| 2026-05-04 10:17 | 37.92999 | 23.94653 | 322 ft | 11 kts | 203° |
| 2026-05-04 10:19 | 37.92546 | 23.94310 | 322 ft | 6 kts | 130° |
| 2026-05-04 10:19 | 37.92540 | 23.94320 | 322 ft | 0 kts | 126° |
| 2026-05-04 10:19 | 37.92528 | 23.94340 | 322 ft | 12 kts | 126° |
| 2026-05-04 10:20 | 37.92490 | 23.94438 | 322 ft | 11 kts | 77° |
| 2026-05-04 10:20 | 37.92547 | 23.94513 | 322 ft | 14 kts | 37° |
| 2026-05-04 10:20 | 37.92687 | 23.94647 | 322 ft | 52 kts | 37° |
| 2026-05-04 10:20 | 37.93183 | 23.95117 | 323 ft | 126 kts | 37° |
| 2026-05-04 10:21 | 37.94047 | 23.95936 | 487 ft | 175 kts | 37° |
| 2026-05-04 10:21 | 37.95051 | 23.96887 | 1045 ft | 195 kts | 36° |
| 2026-05-04 10:21 | 37.96156 | 23.97937 | 1553 ft | 191 kts | 35° |
| 2026-05-04 10:21 | 37.97225 | 23.98952 | 2058 ft | 193 kts | 35° |
| 2026-05-04 10:22 | 37.99312 | 24.00935 | 3031 ft | 194 kts | 35° |
| 2026-05-04 10:22 | 38.00391 | 24.01961 | 3531 ft | 194 kts | 34° |
| 2026-05-04 10:22 | 38.01483 | 24.03001 | 4037 ft | 194 kts | 33° |
| 2026-05-04 10:23 | 38.02503 | 24.03973 | 4512 ft | 194 kts | 33° |
| 2026-05-04 10:23 | 38.03583 | 24.05004 | 5012 ft | 194 kts | 32° |
| 2026-05-04 10:25 | 38.08325 | 24.02082 | 8276 ft | 216 kts | 258° |
| 2026-05-04 10:25 | 38.07646 | 23.99685 | 8942 ft | 220 kts | 257° |
| 2026-05-04 10:25 | 38.07112 | 23.97854 | 9443 ft | 222 kts | 257° |
| 2026-05-04 10:25 | 38.06585 | 23.96009 | 9945 ft | 223 kts | 258° |
| 2026-05-04 10:26 | 38.06268 | 23.94735 | 10286 ft | 223 kts | 261° |
| 2026-05-04 10:26 | 38.05802 | 23.92213 | 10946 ft | 223 kts | 266° |
| 2026-05-04 10:26 | 38.05655 | 23.91088 | 11241 ft | 223 kts | 268° |
| 2026-05-04 10:26 | 38.05468 | 23.89064 | 11659 ft | 236 kts | 271° |
| 2026-05-04 10:27 | 38.05356 | 23.86899 | 12065 ft | 256 kts | 273° |
| 2026-05-04 10:27 | 38.05299 | 23.84720 | 12439 ft | 275 kts | 274° |
| 2026-05-04 10:27 | 38.05275 | 23.82097 | 12850 ft | 298 kts | 274° |
| 2026-05-04 10:27 | 38.05276 | 23.79414 | 13237 ft | 319 kts | 275° |
| 2026-05-04 10:28 | 38.05291 | 23.76497 | 13628 ft | 331 kts | 275° |
| 2026-05-04 10:28 | 38.05312 | 23.73553 | 14008 ft | 337 kts | 275° |
| 2026-05-04 10:28 | 38.05337 | 23.70558 | 14385 ft | 342 kts | 275° |
| 2026-05-04 10:28 | 38.05363 | 23.67558 | 14759 ft | 346 kts | 275° |
| 2026-05-04 10:29 | 38.05392 | 23.64494 | 15136 ft | 349 kts | 275° |
| 2026-05-04 10:29 | 38.05422 | 23.61408 | 15513 ft | 351 kts | 275° |
| 2026-05-04 10:29 | 38.05453 | 23.58303 | 15890 ft | 353 kts | 275° |
| 2026-05-04 10:29 | 38.05484 | 23.55194 | 16265 ft | 354 kts | 275° |
| 2026-05-04 10:30 | 38.05516 | 23.52064 | 16641 ft | 356 kts | 275° |
| 2026-05-04 10:30 | 38.05547 | 23.49022 | 17005 ft | 357 kts | 275° |
| 2026-05-04 10:30 | 38.05580 | 23.45774 | 17393 ft | 358 kts | 275° |
| 2026-05-04 10:30 | 38.05611 | 23.42613 | 17769 ft | 359 kts | 275° |
| 2026-05-04 10:31 | 38.05643 | 23.39403 | 18149 ft | 360 kts | 275° |
| 2026-05-04 10:31 | 38.05673 | 23.36381 | 18507 ft | 361 kts | 275° |
| 2026-05-04 10:32 | 38.05832 | 23.17786 | 20702 ft | 360 kts | 277° |
| 2026-05-04 10:33 | 38.05863 | 23.14600 | 21079 ft | 363 kts | 278° |
| 2026-05-04 10:33 | 38.05892 | 23.11427 | 21452 ft | 365 kts | 278° |
| 2026-05-04 10:33 | 38.05918 | 23.08213 | 21828 ft | 366 kts | 278° |
| 2026-05-04 10:33 | 38.05943 | 23.04979 | 22204 ft | 367 kts | 278° |
| 2026-05-04 10:34 | 38.05966 | 23.01740 | 22580 ft | 368 kts | 278° |
| 2026-05-04 10:34 | 38.05989 | 22.98480 | 22956 ft | 370 kts | 278° |
| 2026-05-04 10:34 | 38.06010 | 22.95218 | 23332 ft | 371 kts | 278° |
| 2026-05-04 10:34 | 38.06031 | 22.91928 | 23711 ft | 372 kts | 279° |
| 2026-05-04 10:35 | 38.06050 | 22.88650 | 24086 ft | 373 kts | 279° |
| 2026-05-04 10:35 | 38.06069 | 22.85357 | 24461 ft | 374 kts | 278° |
| 2026-05-04 10:35 | 38.06088 | 22.82058 | 24836 ft | 376 kts | 278° |
| 2026-05-04 10:35 | 38.06105 | 22.78735 | 25193 ft | 378 kts | 278° |
| 2026-05-04 10:36 | 38.06123 | 22.75388 | 25470 ft | 381 kts | 279° |
| 2026-05-04 10:36 | 38.06411 | 22.72102 | 25723 ft | 371 kts | 291° |
| 2026-05-04 10:36 | 38.07236 | 22.69043 | 25977 ft | 366 kts | 299° |
| 2026-05-04 10:36 | 38.08361 | 22.66162 | 26230 ft | 365 kts | 303° |
| 2026-05-04 10:37 | 38.09650 | 22.63396 | 26481 ft | 365 kts | 306° |
| 2026-05-04 10:37 | 38.11033 | 22.60689 | 26733 ft | 366 kts | 308° |
| 2026-05-04 10:37 | 38.12466 | 22.58016 | 26984 ft | 367 kts | 308° |
| 2026-05-04 10:37 | 38.13946 | 22.55317 | 27238 ft | 369 kts | 309° |
| 2026-05-04 10:39 | 38.22804 | 22.39265 | 28729 ft | 378 kts | 308° |
| 2026-05-04 10:39 | 38.24300 | 22.36524 | 28980 ft | 379 kts | 308° |
| 2026-05-04 10:39 | 38.25804 | 22.33761 | 29231 ft | 380 kts | 308° |
| 2026-05-04 10:40 | 38.27307 | 22.30993 | 29479 ft | 382 kts | 308° |
| 2026-05-04 10:40 | 38.28818 | 22.28203 | 29730 ft | 384 kts | 308° |
| 2026-05-04 10:40 | 38.30279 | 22.25504 | 29971 ft | 386 kts | 308° |
| 2026-05-04 10:40 | 38.31863 | 22.22577 | 30195 ft | 389 kts | 308° |
| 2026-05-04 10:41 | 38.33404 | 22.19731 | 30339 ft | 392 kts | 308° |
| 2026-05-04 10:41 | 38.34948 | 22.16873 | 30467 ft | 393 kts | 308° |
| 2026-05-04 10:41 | 38.36498 | 22.14001 | 30593 ft | 394 kts | 308° |
| 2026-05-04 10:41 | 38.38047 | 22.11128 | 30718 ft | 394 kts | 308° |
| 2026-05-04 10:42 | 38.39618 | 22.08209 | 30845 ft | 395 kts | 308° |
| 2026-05-04 10:42 | 38.41172 | 22.05320 | 30970 ft | 396 kts | 308° |
| 2026-05-04 10:42 | 38.42727 | 22.02424 | 31095 ft | 397 kts | 308° |
| 2026-05-04 10:42 | 38.44285 | 21.99522 | 31220 ft | 398 kts | 308° |
| 2026-05-04 10:43 | 38.45840 | 21.96621 | 31345 ft | 399 kts | 308° |
| 2026-05-04 10:44 | 38.58934 | 21.78571 | 32230 ft | 401 kts | 325° |
| 2026-05-04 10:45 | 38.61223 | 21.76525 | 32355 ft | 402 kts | 326° |
| 2026-05-04 10:45 | 38.63534 | 21.74503 | 32481 ft | 403 kts | 326° |
| 2026-05-04 10:45 | 38.65863 | 21.72485 | 32606 ft | 404 kts | 326° |
| 2026-05-04 10:45 | 38.68183 | 21.70484 | 32729 ft | 401 kts | 326° |
| 2026-05-04 10:46 | 38.70465 | 21.68518 | 32851 ft | 398 kts | 326° |
| 2026-05-04 10:46 | 38.72760 | 21.66540 | 32975 ft | 396 kts | 326° |
| 2026-05-04 10:46 | 38.75048 | 21.64565 | 33100 ft | 395 kts | 326° |
| 2026-05-04 10:46 | 38.77337 | 21.62586 | 33221 ft | 395 kts | 326° |
| 2026-05-04 10:47 | 38.79614 | 21.60614 | 33344 ft | 397 kts | 326° |
| 2026-05-04 10:47 | 38.81912 | 21.58619 | 33470 ft | 400 kts | 326° |
| 2026-05-04 10:47 | 38.84228 | 21.56606 | 33596 ft | 403 kts | 326° |
| 2026-05-04 10:47 | 38.86559 | 21.54576 | 33722 ft | 407 kts | 326° |
| 2026-05-04 10:49 | 39.03046 | 21.40147 | 34200 ft | 407 kts | 326° |
| 2026-05-04 10:50 | 39.07682 | 21.36068 | 34199 ft | 406 kts | 326° |
| 2026-05-04 10:52 | 39.26186 | 21.19722 | 34200 ft | 404 kts | 326° |
| 2026-05-04 10:52 | 39.30824 | 21.15607 | 34200 ft | 406 kts | 326° |
| 2026-05-04 10:54 | 39.49239 | 20.99206 | 34196 ft | 408 kts | 326° |
| 2026-05-04 10:56 | 39.67920 | 20.82456 | 34198 ft | 408 kts | 326° |
| 2026-05-04 10:57 | 39.72461 | 20.78367 | 34198 ft | 408 kts | 326° |
| 2026-05-04 10:57 | 39.77246 | 20.74051 | 34195 ft | 408 kts | 326° |
| 2026-05-04 10:58 | 39.81865 | 20.69878 | 34193 ft | 409 kts | 326° |
| 2026-05-04 10:58 | 39.86555 | 20.65632 | 34150 ft | 410 kts | 326° |
| 2026-05-04 10:59 | 39.91203 | 20.61418 | 34145 ft | 410 kts | 326° |
| 2026-05-04 10:59 | 39.95905 | 20.57146 | 34150 ft | 410 kts | 326° |
| 2026-05-04 11:00 | 40.00562 | 20.52907 | 34151 ft | 410 kts | 326° |
| 2026-05-04 11:02 | 40.20110 | 20.37523 | 34155 ft | 413 kts | 332° |
| 2026-05-04 11:05 | 40.57833 | 20.09858 | 34183 ft | 411 kts | 331° |
| 2026-05-04 11:06 | 40.62828 | 20.06164 | 34185 ft | 411 kts | 331° |
| 2026-05-04 11:06 | 40.67798 | 20.02482 | 34184 ft | 411 kts | 331° |
| 2026-05-04 11:10 | 41.02785 | 19.76376 | 34178 ft | 414 kts | 331° |
| 2026-05-04 11:12 | 41.22774 | 19.61315 | 34172 ft | 412 kts | 331° |
| 2026-05-04 11:12 | 41.27727 | 19.57566 | 34171 ft | 412 kts | 331° |
| 2026-05-04 11:13 | 41.30235 | 19.55665 | 34172 ft | 413 kts | 331° |
| 2026-05-04 11:16 | 41.52021 | 19.39084 | 34170 ft | 416 kts | 331° |
| 2026-05-04 11:16 | 41.56235 | 19.35862 | 34170 ft | 416 kts | 331° |
| 2026-05-04 11:17 | 41.61247 | 19.32016 | 34164 ft | 426 kts | 334° |
| 2026-05-04 11:19 | 41.82057 | 19.16027 | 34169 ft | 423 kts | 330° |
| 2026-05-04 11:19 | 41.87109 | 19.12113 | 34170 ft | 421 kts | 330° |
| 2026-05-04 11:20 | 41.92197 | 19.08166 | 34170 ft | 419 kts | 330° |
| 2026-05-04 11:20 | 41.97223 | 19.04262 | 34170 ft | 419 kts | 330° |
| 2026-05-04 11:22 | 42.17369 | 18.88547 | 34170 ft | 418 kts | 330° |
| 2026-05-04 11:23 | 42.22372 | 18.84625 | 34171 ft | 418 kts | 330° |
| 2026-05-04 11:25 | 42.40059 | 18.70921 | 34175 ft | 420 kts | 331° |
| 2026-05-04 11:25 | 42.45138 | 18.67000 | 34176 ft | 421 kts | 331° |
| 2026-05-04 11:27 | 42.67769 | 18.49431 | 34185 ft | 421 kts | 330° |
| 2026-05-04 11:28 | 42.70627 | 18.47200 | 34188 ft | 421 kts | 330° |
| 2026-05-04 11:33 | 43.06723 | 18.18826 | 34172 ft | 465 kts | 330° |
| 2026-05-04 11:33 | 43.09492 | 18.16623 | 34139 ft | 454 kts | 330° |
| 2026-05-04 11:33 | 43.12175 | 18.14490 | 34126 ft | 443 kts | 330° |
| 2026-05-04 11:34 | 43.17455 | 18.10295 | 34124 ft | 434 kts | 330° |
| 2026-05-04 11:34 | 43.22653 | 18.06162 | 34127 ft | 429 kts | 330° |
| 2026-05-04 11:35 | 43.27809 | 18.02055 | 34118 ft | 427 kts | 330° |
| 2026-05-04 11:35 | 43.32913 | 17.97981 | 34114 ft | 427 kts | 330° |
| 2026-05-04 11:36 | 43.38066 | 17.93859 | 34115 ft | 428 kts | 330° |
| 2026-05-04 11:36 | 43.43200 | 17.89744 | 34116 ft | 428 kts | 330° |
| 2026-05-04 11:37 | 43.48360 | 17.85599 | 34119 ft | 428 kts | 330° |
| 2026-05-04 11:37 | 43.53490 | 17.81469 | 34120 ft | 428 kts | 330° |
| 2026-05-04 11:38 | 43.58626 | 17.77326 | 34125 ft | 428 kts | 330° |
| 2026-05-04 11:38 | 43.63766 | 17.73172 | 34135 ft | 428 kts | 330° |
| 2026-05-04 11:39 | 43.68877 | 17.69033 | 34137 ft | 429 kts | 330° |
| 2026-05-04 11:41 | 43.86932 | 17.54342 | 34152 ft | 431 kts | 330° |
| 2026-05-04 11:41 | 43.92083 | 17.50132 | 34151 ft | 431 kts | 330° |
| 2026-05-04 11:42 | 43.97246 | 17.45903 | 34152 ft | 432 kts | 330° |
| 2026-05-04 11:42 | 44.02419 | 17.41656 | 34154 ft | 432 kts | 329° |
| 2026-05-04 11:43 | 44.07582 | 17.37411 | 34152 ft | 432 kts | 329° |
| 2026-05-04 11:43 | 44.12764 | 17.33140 | 34158 ft | 432 kts | 329° |
| 2026-05-04 11:44 | 44.17909 | 17.28891 | 34158 ft | 432 kts | 329° |
| 2026-05-04 11:44 | 44.23074 | 17.24617 | 34156 ft | 432 kts | 329° |
| 2026-05-04 11:45 | 44.28245 | 17.20330 | 34157 ft | 432 kts | 329° |
| 2026-05-04 11:45 | 44.33408 | 17.16041 | 34153 ft | 434 kts | 329° |
| 2026-05-04 11:46 | 44.38593 | 17.11723 | 34150 ft | 435 kts | 329° |
| 2026-05-04 11:46 | 44.43773 | 17.07400 | 34146 ft | 435 kts | 329° |
| 2026-05-04 11:47 | 44.49011 | 17.03024 | 34155 ft | 439 kts | 327° |
| 2026-05-04 11:47 | 44.54302 | 16.98592 | 34135 ft | 448 kts | 326° |
| 2026-05-04 11:48 | 44.59726 | 16.94031 | 34141 ft | 457 kts | 329° |
| 2026-05-04 11:48 | 44.65058 | 16.89529 | 34130 ft | 448 kts | 329° |
| 2026-05-04 11:49 | 44.70385 | 16.85036 | 34120 ft | 442 kts | 329° |
| 2026-05-04 11:49 | 44.75624 | 16.80611 | 34119 ft | 439 kts | 329° |
| 2026-05-04 11:50 | 44.80838 | 16.76198 | 34118 ft | 438 kts | 329° |
| 2026-05-04 11:50 | 44.86063 | 16.71764 | 34120 ft | 438 kts | 328° |
| 2026-05-04 11:51 | 44.91292 | 16.67316 | 34121 ft | 440 kts | 328° |
| 2026-05-04 11:51 | 44.96502 | 16.62874 | 34119 ft | 441 kts | 328° |
| 2026-05-04 11:52 | 45.01496 | 16.58604 | 34117 ft | 441 kts | 328° |
| 2026-05-04 11:52 | 45.06749 | 16.54104 | 34113 ft | 441 kts | 328° |
| 2026-05-04 11:53 | 45.12009 | 16.49591 | 34113 ft | 441 kts | 328° |
| 2026-05-04 11:53 | 45.17238 | 16.45237 | 34118 ft | 441 kts | 329° |
| 2026-05-04 11:55 | 45.38346 | 16.28066 | 34121 ft | 443 kts | 329° |
| 2026-05-04 11:56 | 45.43358 | 16.23977 | 34122 ft | 443 kts | 329° |
| 2026-05-04 11:56 | 45.48552 | 16.19731 | 34119 ft | 444 kts | 329° |
| 2026-05-04 11:57 | 45.53046 | 16.16047 | 34121 ft | 444 kts | 329° |
| 2026-05-04 11:57 | 45.56739 | 16.13013 | 34127 ft | 444 kts | 329° |
| 2026-05-04 11:58 | 45.60436 | 16.09972 | 34129 ft | 444 kts | 329° |
| 2026-05-04 11:58 | 45.65570 | 16.05739 | 34096 ft | 445 kts | 329° |
| 2026-05-04 11:59 | 45.70803 | 16.01415 | 34075 ft | 445 kts | 329° |
| 2026-05-04 11:59 | 45.76138 | 15.96997 | 34071 ft | 445 kts | 329° |
| 2026-05-04 12:00 | 45.81455 | 15.92582 | 34072 ft | 446 kts | 329° |
| 2026-05-04 12:00 | 45.86824 | 15.88115 | 34074 ft | 446 kts | 329° |
| 2026-05-04 12:01 | 45.92046 | 15.83761 | 34075 ft | 447 kts | 329° |
| 2026-05-04 12:02 | 46.07756 | 15.70598 | 34073 ft | 447 kts | 330° |
| 2026-05-04 12:03 | 46.12679 | 15.66455 | 34073 ft | 447 kts | 329° |
| 2026-05-04 12:03 | 46.18805 | 15.61315 | 34056 ft | 448 kts | 329° |
| 2026-05-04 12:04 | 46.23839 | 15.57108 | 34053 ft | 448 kts | 329° |
| 2026-05-04 12:04 | 46.29246 | 15.52588 | 34053 ft | 448 kts | 329° |
| 2026-05-04 12:05 | 46.33747 | 15.48819 | 34053 ft | 448 kts | 329° |
| 2026-05-04 12:05 | 46.38821 | 15.44559 | 34055 ft | 449 kts | 329° |
| 2026-05-04 12:06 | 46.42809 | 15.41206 | 34059 ft | 449 kts | 329° |
| 2026-05-04 12:06 | 46.47018 | 15.37659 | 34061 ft | 449 kts | 329° |
| 2026-05-04 12:07 | 46.51323 | 15.34024 | 34060 ft | 449 kts | 329° |
| 2026-05-04 12:07 | 46.55632 | 15.30378 | 34059 ft | 449 kts | 329° |
| 2026-05-04 12:08 | 46.61043 | 15.25790 | 34060 ft | 449 kts | 329° |
| 2026-05-04 12:08 | 46.66409 | 15.21229 | 34063 ft | 449 kts | 328° |
| 2026-05-04 12:09 | 46.71758 | 15.16673 | 34063 ft | 450 kts | 328° |
| 2026-05-04 12:09 | 46.75818 | 15.13206 | 34063 ft | 450 kts | 328° |
| 2026-05-04 12:10 | 46.79705 | 15.09883 | 34065 ft | 451 kts | 328° |
| 2026-05-04 12:10 | 46.81109 | 15.08680 | 34066 ft | 451 kts | 328° |
| 2026-05-04 12:11 | 46.85426 | 15.04979 | 34065 ft | 451 kts | 328° |
| 2026-05-04 12:11 | 46.88753 | 15.02122 | 34064 ft | 451 kts | 328° |
| 2026-05-04 12:12 | 46.94030 | 14.97581 | 34068 ft | 451 kts | 328° |
| 2026-05-04 12:12 | 46.99406 | 14.92945 | 34075 ft | 451 kts | 328° |
| 2026-05-04 12:14 | 47.13799 | 14.80479 | 34073 ft | 451 kts | 328° |
| 2026-05-04 12:15 | 47.16069 | 14.78506 | 34074 ft | 451 kts | 328° |
| 2026-05-04 12:15 | 47.20602 | 14.74559 | 34075 ft | 451 kts | 328° |
| 2026-05-04 12:16 | 47.24895 | 14.70815 | 34074 ft | 451 kts | 328° |
| 2026-05-04 12:16 | 47.30089 | 14.66274 | 34073 ft | 453 kts | 327° |
| 2026-05-04 12:17 | 47.33964 | 14.62880 | 34072 ft | 453 kts | 327° |